Billy Bishop Toronto City Centre Airport
CYTZ : rendu visible

Aérodrome :











RETROUVEZ-NOUS SUR...

 
LOGIN :

S'inscrire | Disclaimer

   EN    FR    IT 

 









Légende :    VFR   VFR Marginal   IFR   IFR Intensif   IFR Très Intensif
Visi : 
Plafond : 
>= 8 km
>= 3000ft
5 à 8 km
1000 à 3000 ft
1500m à 5 km
500 à 1000 ft
800 à 1500m
200 à 500 ft
< 800m
< 200 ft
Symboles :   Orages  Brouillard  Fortes neiges  Fortes précipitations  Vent > 20 kt







- Altitude de l'aérodrome : 251 ft
- Code IATA : YTZ


CYTZ - Billy Bishop Toronto City Centre

DERNIER METAR :
  • 190200Z AUTO 07008KT 9SM FEW250 18/16 A3026 RMK SLP248

METARs EXPIRÉS :
  • 190100Z AUTO 06009KT 9SM CLR 18/15 A3025 RMK SLP246
  • 190000Z AUTO 07010KT 9SM CLR 18/14 A3025 RMK SLP247 DENSITY ALT 300FT

TAF TAF CYTZ
Valide du 19 à 02h jusqu'au 20 à 02h UTC


190138Z 1902/2002 06008KT P6SM SCT240
BECMG 1905/1907 VRB03KT
FM191500 18010KT P6SM SKC
BECMG 1918/1920 13008KT RMK FCST BASED ON AUTO OBS. NXT FCST BY 190800Z
Pas de NOTAMs connus pour ce terrain.



MET'MAP, la Météo Aéronautique d'un coup d'oeil ! - Copyright ORBIFLY Décembre 2007 - Disclaimer

ORBIFLY MET'MAP TEAM :

Programmation & Développement : Alexandra Zaïnal
Conception & Développement : Baudouin d'Aumeries
Co-Programmation & Développement : Marc-Olivier Méhu
Soutien technique & logistique : Manuel Goepfert

Contact : metmap@orbifly.com




SOURCES & CREDITS :

   NOAA       Earth
Advisory